createdAt,value
2018-06-15T00:01:12.532Z,16.71
2018-06-15T00:05:10.294Z,16.83
2018-06-15T00:07:38.743Z,16.66
2018-06-15T00:10:07.280Z,16.57
2018-06-15T00:12:35.759Z,16.55
2018-06-15T00:15:04.234Z,16.57
2018-06-15T00:17:32.665Z,16.47
2018-06-15T00:20:01.129Z,16.37
2018-06-15T00:22:29.524Z,16.33
2018-06-15T00:24:57.976Z,16.33
2018-06-15T00:27:26.500Z,16.25
2018-06-15T00:29:54.911Z,16.28
2018-06-15T00:32:23.375Z,16.20
2018-06-15T00:34:52.063Z,16.12
2018-06-15T00:37:20.507Z,16.14
2018-06-15T00:39:48.951Z,16.09
2018-06-15T00:42:17.401Z,16.08
2018-06-15T00:44:45.911Z,16.10
2018-06-15T00:47:14.345Z,16.02
2018-06-15T00:49:43.028Z,16.04
2018-06-15T00:52:11.481Z,16.08
2018-06-15T00:54:39.965Z,16.04
2018-06-15T00:57:19.475Z,16.05
2018-06-15T00:59:47.991Z,16.00
2018-06-15T01:02:16.471Z,16.02
2018-06-15T01:04:44.959Z,16.05
2018-06-15T01:07:13.375Z,16.00
2018-06-15T01:09:41.823Z,16.06
2018-06-15T01:12:10.300Z,15.99
2018-06-15T01:14:38.742Z,16.00
2018-06-15T01:17:07.175Z,16.11
2018-06-15T01:19:35.675Z,16.02
2018-06-15T01:22:04.130Z,15.95
2018-06-15T01:24:32.619Z,16.06
2018-06-15T01:27:01.063Z,16.16
2018-06-15T01:29:29.586Z,16.12
2018-06-15T01:31:58.058Z,15.97
2018-06-15T01:34:26.514Z,16.04
2018-06-15T01:36:54.984Z,15.98
2018-06-15T01:39:23.402Z,16.02
2018-06-15T01:41:51.831Z,15.95
2018-06-15T01:44:20.620Z,15.86
2018-06-15T01:46:49.059Z,15.93
2018-06-15T01:49:17.539Z,16.01
2018-06-15T01:51:46.146Z,16.06
2018-06-15T01:54:14.754Z,16.08
2018-06-15T01:56:43.400Z,16.04
2018-06-15T01:59:11.804Z,16.07
2018-06-15T02:01:40.264Z,16.14
2018-06-15T02:04:08.901Z,16.16
2018-06-15T02:06:37.597Z,16.09
2018-06-15T02:09:08.128Z,16.25
2018-06-15T02:11:36.662Z,16.10
2018-06-15T02:14:05.162Z,16.14
2018-06-15T02:16:33.998Z,16.09
2018-06-15T02:19:02.784Z,16.06
2018-06-15T02:21:31.239Z,16.17
2018-06-15T02:23:59.676Z,16.15
2018-06-15T02:26:28.116Z,16.02
2018-06-15T02:28:56.580Z,15.86
2018-06-15T02:31:25.019Z,16.06
2018-06-15T02:33:53.449Z,16.02
2018-06-15T02:36:21.928Z,15.89
2018-06-15T02:38:50.570Z,15.74
2018-06-15T02:41:19.044Z,15.67
2018-06-15T02:43:47.512Z,15.59
2018-06-15T02:46:15.966Z,15.62
2018-06-15T02:48:44.457Z,15.65
2018-06-15T02:51:12.975Z,15.78
2018-06-15T02:53:41.375Z,15.98
2018-06-15T02:56:09.905Z,15.73
2018-06-15T02:58:38.348Z,15.64
2018-06-15T03:01:06.915Z,16.05
2018-06-15T03:03:35.344Z,15.67
2018-06-15T03:06:03.774Z,16.87
2018-06-15T03:08:32.236Z,16.26
2018-06-15T03:11:00.675Z,15.81
2018-06-15T03:13:29.200Z,15.52
2018-06-15T03:15:57.851Z,15.81
2018-06-15T03:18:26.294Z,15.52
2018-06-15T03:20:55.667Z,15.59
2018-06-15T03:23:24.050Z,15.62
2018-06-15T03:25:52.472Z,15.52
2018-06-15T03:28:20.902Z,15.41
2018-06-15T03:30:49.384Z,15.66
2018-06-15T03:33:17.812Z,15.58
2018-06-15T03:35:46.252Z,15.61
2018-06-15T03:38:14.724Z,15.75
2018-06-15T03:40:43.171Z,15.74
2018-06-15T03:43:11.799Z,15.47
2018-06-15T03:45:40.280Z,15.40
2018-06-15T03:48:08.701Z,15.30
2018-06-15T03:50:37.154Z,15.14
2018-06-15T03:53:05.660Z,15.13
2018-06-15T03:55:34.313Z,15.45
2018-06-15T03:58:02.786Z,15.47
2018-06-15T04:00:31.244Z,15.29
2018-06-15T04:02:59.650Z,15.57
2018-06-15T04:05:28.089Z,15.61
2018-06-15T04:07:56.583Z,15.68
2018-06-15T04:10:25.014Z,15.50
2018-06-15T04:12:53.516Z,15.33
2018-06-15T04:15:21.885Z,15.64
2018-06-15T04:18:02.449Z,15.77
2018-06-15T04:20:31.128Z,15.97
2018-06-15T04:22:59.886Z,15.66
2018-06-15T04:25:28.958Z,15.97
2018-06-15T04:27:57.407Z,15.95
2018-06-15T04:30:25.888Z,15.61
2018-06-15T04:32:55.527Z,15.28
2018-06-15T04:35:23.979Z,15.24
2018-06-15T04:37:52.529Z,15.13
2018-06-15T04:40:20.924Z,15.17
2018-06-15T04:42:49.372Z,15.11
2018-06-15T04:45:18.084Z,15.09
2018-06-15T04:47:46.513Z,15.04
2018-06-15T04:50:14.965Z,15.24
2018-06-15T04:52:43.392Z,15.24
2018-06-15T04:55:11.859Z,15.23
2018-06-15T04:57:40.259Z,15.30
2018-06-15T05:00:08.656Z,15.40
2018-06-15T05:02:37.124Z,15.43
2018-06-15T05:05:05.579Z,15.44
2018-06-15T05:07:34.000Z,15.49
2018-06-15T05:10:02.697Z,15.77
2018-06-15T05:12:31.379Z,15.52
2018-06-15T05:14:59.831Z,15.69
2018-06-15T05:17:28.242Z,15.88
2018-06-15T05:19:56.691Z,15.95
2018-06-15T05:22:25.118Z,16.01
2018-06-15T05:24:53.781Z,16.19
2018-06-15T05:27:22.250Z,16.36
2018-06-15T05:29:50.663Z,16.64
2018-06-15T05:32:19.080Z,16.52
2018-06-15T05:34:47.504Z,16.40
2018-06-15T05:37:15.947Z,16.55
2018-06-15T05:39:44.505Z,16.61
2018-06-15T05:42:12.983Z,16.55
2018-06-15T05:44:41.428Z,16.50
2018-06-15T05:47:09.864Z,16.69
2018-06-15T05:49:38.268Z,16.78
2018-06-15T05:52:06.787Z,16.88
2018-06-15T05:54:35.248Z,17.13
2018-06-15T05:57:03.703Z,16.96
2018-06-15T05:59:32.169Z,17.29
2018-06-15T06:02:00.635Z,17.41
2018-06-15T06:04:29.244Z,17.42
2018-06-15T06:06:57.935Z,17.58
2018-06-15T06:09:26.659Z,17.97
2018-06-15T06:11:55.077Z,18.32
2018-06-15T06:14:23.830Z,18.50
2018-06-15T06:16:52.276Z,18.54
2018-06-15T06:19:20.739Z,18.45
2018-06-15T06:21:49.176Z,18.61
2018-06-15T06:24:17.749Z,18.83
2018-06-15T06:26:46.410Z,18.82
2018-06-15T06:29:14.765Z,19.22
2018-06-15T06:31:43.204Z,19.72
2018-06-15T06:34:11.587Z,19.94
2018-06-15T06:36:40.019Z,20.21
2018-06-15T06:39:10.788Z,20.35
2018-06-15T06:41:39.537Z,19.70
2018-06-15T06:44:08.208Z,20.80
2018-06-15T06:46:36.612Z,20.31
2018-06-15T06:49:05.117Z,20.79
2018-06-15T06:51:33.523Z,20.99
2018-06-15T06:54:01.976Z,19.88
2018-06-15T06:56:30.544Z,19.60
2018-06-15T06:58:59.090Z,19.73
2018-06-15T07:01:27.566Z,20.14
2018-06-15T07:03:55.951Z,19.53
2018-06-15T07:06:24.388Z,19.75
2018-06-15T07:08:53.004Z,20.51
2018-06-15T07:11:21.396Z,20.58
2018-06-15T07:13:49.828Z,20.27
2018-06-15T07:16:18.248Z,19.81
2018-06-15T07:18:46.636Z,19.58
2018-06-15T07:21:15.071Z,19.92
2018-06-15T07:23:43.545Z,20.66
2018-06-15T07:26:12.004Z,19.93
2018-06-15T07:28:40.430Z,20.05
2018-06-15T07:31:08.834Z,20.26
2018-06-15T07:33:37.672Z,20.05
2018-06-15T07:36:06.419Z,20.08
2018-06-15T07:38:34.944Z,20.08
2018-06-15T07:41:03.347Z,20.31
2018-06-15T07:43:32.066Z,20.37
2018-06-15T07:46:00.828Z,20.37
2018-06-15T07:48:29.261Z,20.36
2018-06-15T07:50:57.693Z,20.45
2018-06-15T07:53:26.124Z,20.73
2018-06-15T07:55:54.576Z,20.34
2018-06-15T07:58:22.994Z,20.51
2018-06-15T08:00:51.404Z,20.60
2018-06-15T08:03:19.847Z,20.28
2018-06-15T08:05:48.255Z,20.64
2018-06-15T08:08:16.884Z,20.59
2018-06-15T08:10:45.546Z,21.14
2018-06-15T08:13:13.943Z,21.34
2018-06-15T08:15:42.365Z,20.56
2018-06-15T08:18:10.808Z,20.24
2018-06-15T08:20:39.241Z,21.60
2018-06-15T08:23:07.651Z,21.70
2018-06-15T08:25:36.219Z,21.29
2018-06-15T08:28:04.632Z,21.31
2018-06-15T08:30:33.084Z,21.01
2018-06-15T08:33:01.489Z,21.59
2018-06-15T08:35:29.920Z,21.47
2018-06-15T08:37:58.348Z,21.57
2018-06-15T08:40:26.778Z,21.67
2018-06-15T08:42:55.190Z,21.38
2018-06-15T08:45:23.603Z,21.09
2018-06-15T08:47:52.082Z,21.25
2018-06-15T08:50:20.497Z,21.26
2018-06-15T08:52:49.083Z,21.03
2018-06-15T08:55:17.427Z,21.43
2018-06-15T08:57:45.828Z,21.00
2018-06-15T09:00:14.419Z,21.37
2018-06-15T09:02:42.802Z,21.14
2018-06-15T09:05:11.252Z,20.99
2018-06-15T09:07:39.670Z,21.43
2018-06-15T09:10:08.086Z,21.87
2018-06-15T09:12:36.551Z,22.61
2018-06-15T09:15:05.019Z,23.44
2018-06-15T09:17:33.484Z,22.55
2018-06-15T09:20:01.923Z,22.18
2018-06-15T09:22:30.340Z,22.13
2018-06-15T09:24:58.759Z,21.56
2018-06-15T09:27:27.272Z,20.98
2018-06-15T09:29:55.691Z,22.25
2018-06-15T09:32:24.093Z,22.26
2018-06-15T09:34:52.553Z,22.04
2018-06-15T09:37:20.976Z,22.08
2018-06-15T09:39:49.379Z,21.95
2018-06-15T09:42:17.817Z,22.52
2018-06-15T09:44:46.267Z,22.48
2018-06-15T09:47:15.341Z,22.36
2018-06-15T09:49:43.947Z,22.09
2018-06-15T09:52:12.381Z,21.81
2018-06-15T09:54:40.837Z,22.62
2018-06-15T09:57:09.295Z,22.78
2018-06-15T09:59:37.991Z,22.69
2018-06-15T10:02:06.433Z,24.04
2018-06-15T10:04:34.873Z,23.47
2018-06-15T10:07:03.562Z,24.27
2018-06-15T10:09:31.976Z,23.83
2018-06-15T10:12:00.465Z,24.17
2018-06-15T10:14:28.864Z,23.44
2018-06-15T10:16:57.634Z,23.68
2018-06-15T10:19:26.157Z,23.05
2018-06-15T10:21:54.751Z,23.21
2018-06-15T10:24:23.195Z,23.62
2018-06-15T10:26:51.865Z,23.36
2018-06-15T10:29:20.363Z,23.86
2018-06-15T10:31:48.921Z,24.21
2018-06-15T10:34:17.345Z,23.53
2018-06-15T10:36:45.967Z,23.12
2018-06-15T10:39:14.638Z,23.83
2018-06-15T10:41:43.047Z,24.70
2018-06-15T10:44:11.908Z,24.66
2018-06-15T10:46:40.317Z,25.44
2018-06-15T10:49:08.883Z,25.82
2018-06-15T10:51:37.759Z,24.97
2018-06-15T10:54:06.162Z,25.16
2018-06-15T10:56:34.620Z,24.62
2018-06-15T10:59:03.099Z,24.43
2018-06-15T11:01:31.676Z,24.17
2018-06-15T11:04:00.109Z,23.97
2018-06-15T11:06:28.544Z,23.91
2018-06-15T11:08:57.158Z,24.10
2018-06-15T11:11:25.773Z,25.34
2018-06-15T11:13:54.199Z,26.11
2018-06-15T11:16:23.139Z,25.64
2018-06-15T11:18:51.556Z,23.47
2018-06-15T11:21:20.251Z,24.94
2018-06-15T11:23:48.670Z,24.46
2018-06-15T11:26:17.087Z,23.67
2018-06-15T11:28:45.523Z,24.01
2018-06-15T11:31:13.936Z,23.82
2018-06-15T11:33:42.411Z,23.90
2018-06-15T11:36:11.135Z,23.97
2018-06-15T11:38:39.571Z,23.75
2018-06-15T11:41:08.061Z,24.67
2018-06-15T11:43:36.385Z,25.36
2018-06-15T11:46:04.813Z,25.56
2018-06-15T11:48:33.339Z,24.95
2018-06-15T11:51:02.067Z,24.89
2018-06-15T11:53:30.517Z,25.12
2018-06-15T11:55:58.943Z,24.61
2018-06-15T11:58:27.384Z,25.60
2018-06-15T12:00:55.822Z,25.36
2018-06-15T12:03:24.236Z,25.74
2018-06-15T12:05:52.620Z,24.85
2018-06-15T12:08:21.072Z,24.93
2018-06-15T12:10:50.019Z,24.84
2018-06-15T12:13:18.464Z,24.86
2018-06-15T12:15:46.922Z,24.82
2018-06-15T12:18:15.343Z,24.32
2018-06-15T12:20:44.016Z,24.35
2018-06-15T12:23:12.536Z,23.95
2018-06-15T12:25:40.986Z,24.29
2018-06-15T12:28:09.442Z,24.68
2018-06-15T12:30:37.888Z,24.81
2018-06-15T12:33:06.351Z,26.23
2018-06-15T12:35:34.746Z,27.04
2018-06-15T12:38:03.232Z,27.50
2018-06-15T12:40:31.810Z,26.41
2018-06-15T12:43:00.188Z,26.57
2018-06-15T12:45:28.636Z,25.51
2018-06-15T12:47:57.107Z,26.46
2018-06-15T12:50:25.479Z,26.99
2018-06-15T12:52:53.907Z,27.21
2018-06-15T12:55:22.288Z,27.86
2018-06-15T12:57:50.699Z,28.08
2018-06-15T13:00:19.171Z,28.17
2018-06-15T13:02:47.860Z,27.47
2018-06-15T13:05:16.243Z,26.59
2018-06-15T13:07:44.603Z,26.09
2018-06-15T13:10:13.039Z,25.92
2018-06-15T13:12:41.699Z,26.17
2018-06-15T13:15:10.098Z,25.60
2018-06-15T13:17:38.511Z,25.33
2018-06-15T13:20:06.988Z,27.36
2018-06-15T13:22:35.563Z,29.44
2018-06-15T13:25:04.020Z,29.04
2018-06-15T13:27:32.420Z,27.69
2018-06-15T13:30:00.830Z,28.19
2018-06-15T13:32:29.217Z,26.55
2018-06-15T13:34:57.618Z,27.79
2018-06-15T13:37:26.028Z,27.55
2018-06-15T13:39:54.462Z,27.28
2018-06-15T13:42:23.358Z,26.15
2018-06-15T13:44:51.863Z,26.02
2018-06-15T13:47:20.265Z,26.10
2018-06-15T13:49:48.916Z,26.22
2018-06-15T13:52:17.386Z,26.18
2018-06-15T13:54:46.136Z,25.79
2018-06-15T13:57:14.559Z,26.33
2018-06-15T13:59:42.983Z,27.02
2018-06-15T14:02:11.407Z,28.09
2018-06-15T14:04:39.832Z,27.35
2018-06-15T14:07:08.539Z,25.99
2018-06-15T14:09:37.250Z,26.46
2018-06-15T14:12:05.696Z,26.19
2018-06-15T14:14:34.492Z,26.00
2018-06-15T14:17:02.930Z,24.65
2018-06-15T14:19:31.485Z,26.01
2018-06-15T14:22:00.069Z,25.79
2018-06-15T14:24:28.751Z,25.19
2018-06-15T14:26:57.346Z,24.81
2018-06-15T14:29:25.773Z,24.76
2018-06-15T14:31:54.189Z,24.65
2018-06-15T14:34:22.585Z,24.71
2018-06-15T14:36:51.175Z,25.88
2018-06-15T14:39:19.607Z,27.56
2018-06-15T14:41:48.320Z,29.04
2018-06-15T14:44:16.739Z,30.18
2018-06-15T14:46:45.486Z,28.70
2018-06-15T14:49:13.856Z,27.87
2018-06-15T14:51:42.280Z,27.32
2018-06-15T14:54:10.692Z,26.81
2018-06-15T14:56:39.199Z,25.90
2018-06-15T14:59:07.633Z,26.41
2018-06-15T15:01:36.048Z,26.05
2018-06-15T15:04:04.738Z,26.04
2018-06-15T15:06:33.375Z,27.21
2018-06-15T15:09:02.027Z,28.93
2018-06-15T15:11:30.836Z,29.36
2018-06-15T15:13:59.647Z,29.80
2018-06-15T15:16:28.066Z,30.06
2018-06-15T15:18:56.695Z,28.43
2018-06-15T15:21:25.572Z,27.78
2018-06-15T15:23:54.223Z,26.73
2018-06-15T15:26:22.719Z,26.66
2018-06-15T15:28:51.178Z,26.53
2018-06-15T15:31:19.771Z,26.38
2018-06-15T15:33:48.230Z,26.18
2018-06-15T15:36:16.882Z,26.21
2018-06-15T15:38:46.109Z,25.74
2018-06-15T15:41:14.858Z,25.27
2018-06-15T15:43:43.288Z,25.94
2018-06-15T15:46:11.800Z,25.91
2018-06-15T15:48:40.192Z,25.48
2018-06-15T15:51:08.896Z,25.41
2018-06-15T15:53:37.854Z,25.17
2018-06-15T15:56:06.327Z,25.01
2018-06-15T15:58:34.963Z,24.91
2018-06-15T16:01:03.373Z,24.86
2018-06-15T16:03:31.807Z,24.41
2018-06-15T16:06:00.310Z,24.40
2018-06-15T16:08:29.095Z,24.74
2018-06-15T16:10:57.791Z,24.51
2018-06-15T16:13:26.344Z,24.46
2018-06-15T16:15:54.789Z,25.51
2018-06-15T16:18:23.226Z,28.16
2018-06-15T16:20:51.904Z,29.60
2018-06-15T16:23:20.462Z,29.87
2018-06-15T16:25:49.139Z,30.21
2018-06-15T16:28:17.553Z,30.27
2018-06-15T16:30:46.115Z,30.36
2018-06-15T16:33:14.570Z,30.67
2018-06-15T16:35:43.119Z,30.65
2018-06-15T16:38:11.524Z,30.30
2018-06-15T16:40:39.939Z,28.47
2018-06-15T16:43:08.430Z,27.22
2018-06-15T16:45:36.965Z,27.09
2018-06-15T16:48:05.338Z,26.45
2018-06-15T16:50:33.819Z,26.34
2018-06-15T16:53:02.264Z,26.61
2018-06-15T16:55:31.105Z,26.35
2018-06-15T16:57:59.533Z,26.32
2018-06-15T17:00:27.943Z,27.05
2018-06-15T17:02:56.382Z,27.36
2018-06-15T17:05:24.978Z,27.58
2018-06-15T17:07:53.366Z,29.35
2018-06-15T17:10:21.774Z,31.02
2018-06-15T17:12:50.172Z,30.48
2018-06-15T17:15:18.779Z,28.15
2018-06-15T17:17:47.192Z,27.01
2018-06-15T17:20:15.855Z,26.76
2018-06-15T17:22:44.275Z,26.41
2018-06-15T17:25:12.731Z,26.04
2018-06-15T17:27:41.723Z,25.17
2018-06-15T17:30:10.117Z,24.73
2018-06-15T17:32:38.556Z,24.97
2018-06-15T17:35:07.046Z,25.04
2018-06-15T17:37:35.488Z,26.04
2018-06-15T17:40:03.997Z,25.79
2018-06-15T17:42:32.490Z,25.43
2018-06-15T17:45:01.104Z,25.02
2018-06-15T17:47:29.860Z,24.63
2018-06-15T17:49:58.337Z,24.57
2018-06-15T17:52:26.830Z,24.11
2018-06-15T17:54:55.247Z,24.27
2018-06-15T17:57:23.669Z,23.95
2018-06-15T17:59:52.327Z,23.96
2018-06-15T18:02:20.811Z,23.79
2018-06-15T18:04:49.275Z,23.97
2018-06-15T18:07:17.729Z,23.58
2018-06-15T18:09:46.183Z,23.66
2018-06-15T18:12:14.651Z,23.64
2018-06-15T18:14:43.535Z,23.59
2018-06-15T18:17:11.958Z,23.49
2018-06-15T18:19:40.723Z,23.58
2018-06-15T18:22:09.121Z,23.50
2018-06-15T18:24:37.550Z,23.38
2018-06-15T18:27:06.389Z,23.64
2018-06-15T18:29:35.147Z,23.64
2018-06-15T18:32:03.643Z,23.52
2018-06-15T18:34:32.492Z,23.90
2018-06-15T18:37:01.017Z,24.53
2018-06-15T18:39:29.744Z,24.09
2018-06-15T18:41:58.217Z,23.47
2018-06-15T18:44:26.668Z,22.96
2018-06-15T18:46:55.113Z,22.93
2018-06-15T18:49:23.588Z,22.39
2018-06-15T18:51:52.018Z,22.13
2018-06-15T18:54:20.528Z,21.94
2018-06-15T18:56:49.032Z,21.53
2018-06-15T18:59:17.618Z,21.60
2018-06-15T19:01:46.066Z,21.68
2018-06-15T19:04:14.643Z,21.58
2018-06-15T19:06:43.060Z,21.31
2018-06-15T19:09:12.579Z,20.91
2018-06-15T19:11:41.100Z,20.79
2018-06-15T19:14:09.880Z,20.63
2018-06-15T19:16:38.624Z,20.54
2018-06-15T19:19:07.388Z,20.14
2018-06-15T19:21:36.314Z,20.22
2018-06-15T19:24:04.732Z,19.96
2018-06-15T19:26:33.170Z,20.02
2018-06-15T19:29:01.702Z,19.61
2018-06-15T19:31:30.183Z,19.78
2018-06-15T19:33:58.863Z,19.70
2018-06-15T19:36:27.638Z,19.54
2018-06-15T19:38:56.103Z,19.33
2018-06-15T19:41:24.535Z,19.20
2018-06-15T19:43:53.780Z,19.16
2018-06-15T19:46:22.291Z,19.18
2018-06-15T19:48:50.757Z,19.19
2018-06-15T19:51:19.438Z,19.05
2018-06-15T19:53:47.839Z,18.98
2018-06-15T19:56:16.662Z,18.86
2018-06-15T19:58:45.060Z,18.75
2018-06-15T20:01:13.543Z,18.66
2018-06-15T20:03:42.042Z,18.70
2018-06-15T20:06:10.448Z,18.42
2018-06-15T20:08:38.882Z,18.54
2018-06-15T20:11:07.308Z,18.46
2018-06-15T20:13:35.756Z,18.29
2018-06-15T20:16:04.369Z,18.25
2018-06-15T20:18:33.042Z,18.10
2018-06-15T20:21:01.576Z,18.09
2018-06-15T20:23:30.178Z,17.92
2018-06-15T20:25:58.667Z,17.82
2018-06-15T20:28:27.315Z,17.89
2018-06-15T20:30:55.738Z,17.82
2018-06-15T20:33:24.386Z,17.80
2018-06-15T20:35:52.998Z,17.81
2018-06-15T20:38:21.418Z,17.77
2018-06-15T20:40:50.033Z,17.77
2018-06-15T20:43:18.457Z,17.70
2018-06-15T20:45:46.951Z,17.56
2018-06-15T20:48:15.589Z,17.55
2018-06-15T20:50:44.071Z,17.50
2018-06-15T20:53:12.554Z,17.51
2018-06-15T20:55:41.506Z,17.44
2018-06-15T20:58:09.968Z,17.30
2018-06-15T21:00:38.591Z,17.25
2018-06-15T21:03:07.010Z,17.20
2018-06-15T21:05:35.423Z,17.09
2018-06-15T21:08:04.112Z,17.13
2018-06-15T21:10:32.535Z,17.14
2018-06-15T21:13:01.017Z,17.11
2018-06-15T21:15:29.479Z,17.09
2018-06-15T21:17:57.912Z,17.08
2018-06-15T21:20:26.376Z,16.90
2018-06-15T21:22:54.807Z,16.80
2018-06-15T21:25:23.255Z,16.82
2018-06-15T21:27:51.755Z,16.69
2018-06-15T21:30:20.225Z,16.57
2018-06-15T21:32:50.283Z,16.66
2018-06-15T21:35:18.764Z,16.85
2018-06-15T21:37:47.467Z,16.63
2018-06-15T21:40:15.918Z,16.57
2018-06-15T21:42:44.299Z,16.54
2018-06-15T21:45:12.725Z,16.55
2018-06-15T21:47:41.162Z,16.47
2018-06-15T21:50:09.982Z,16.39
2018-06-15T21:52:38.435Z,16.42
2018-06-15T21:55:06.840Z,16.47
2018-06-15T21:57:35.326Z,16.35
2018-06-15T22:00:03.880Z,16.33
2018-06-15T22:02:32.304Z,16.24
2018-06-15T22:05:00.768Z,16.17
2018-06-15T22:07:29.190Z,16.23
2018-06-15T22:09:57.614Z,16.05
2018-06-15T22:12:26.049Z,15.88
2018-06-15T22:14:54.484Z,15.99
2018-06-15T22:17:23.132Z,16.06
2018-06-15T22:19:51.642Z,15.95
2018-06-15T22:22:20.072Z,15.82
2018-06-15T22:24:48.887Z,15.91
2018-06-15T22:27:17.514Z,15.73
2018-06-15T22:29:46.152Z,15.67
2018-06-15T22:32:14.957Z,15.78
2018-06-15T22:34:43.332Z,15.95
2018-06-15T22:37:11.756Z,15.95
2018-06-15T22:39:40.204Z,15.66
2018-06-15T22:42:08.663Z,15.77
2018-06-15T22:44:37.208Z,15.80
2018-06-15T22:47:05.670Z,15.77
2018-06-15T22:49:34.180Z,15.83
2018-06-15T22:52:02.744Z,15.88
2018-06-15T22:54:31.176Z,15.95
2018-06-15T22:56:59.626Z,15.99
2018-06-15T22:59:28.056Z,16.07
2018-06-15T23:01:56.476Z,15.97
2018-06-15T23:04:25.116Z,15.79
2018-06-15T23:06:53.547Z,15.74
2018-06-15T23:09:22.012Z,15.53
2018-06-15T23:11:50.436Z,15.72
2018-06-15T23:14:19.028Z,15.84
2018-06-15T23:16:47.426Z,15.74
2018-06-15T23:19:15.852Z,15.61
2018-06-15T23:21:44.312Z,15.43
2018-06-15T23:24:12.848Z,15.39
2018-06-15T23:26:41.307Z,15.27
2018-06-15T23:29:09.751Z,15.25
2018-06-15T23:31:38.194Z,15.24
2018-06-15T23:34:07.095Z,15.28
2018-06-15T23:36:35.546Z,15.18
2018-06-15T23:39:05.259Z,15.13
2018-06-15T23:41:33.979Z,15.29
2018-06-15T23:44:02.400Z,15.35
2018-06-15T23:46:30.845Z,15.34
2018-06-15T23:48:59.251Z,15.28
2018-06-15T23:51:27.688Z,15.22
2018-06-15T23:53:56.098Z,15.12
2018-06-15T23:56:24.613Z,15.04
2018-06-15T23:58:53.050Z,15.01
